Aérodrome :
LOGIN :

S'inscrire | Disclaimer

   EN    FR    IT 

 










Légende :    VFR   VFR Marginal   IFR   IFR Intensif   IFR Très Intensif
Visi : 
Plafond : 
>= 8 km
>= 3000ft
5 à 8 km
1000 à 3000 ft
1500m à 5 km
500 à 1000 ft
800 à 1500m
200 à 500 ft
< 800m
< 200 ft
Symboles :   Orages  Brouillard  Fortes neiges  Fortes précipitations  Vent > 20 kt
SIGMETs :   Divers  Orages  Givrage  Turbulence  Onde Orograph.  Cendres Volcan.






- Altitude de l'aérodrome : 38 ft
- Code IATA : BOH


EGHH - Bournemouth

DERNIER METAR :
  • 211320Z 11008KT 9999 7000W -RA BKN015 09/06 Q0999

METARs EXPIRÉS :
  • 211250Z 11011KT 9999 SCT014 BKN018 09/06 Q0999
  • 211220Z 11012KT 9999 BKN017 09/05 Q0999
  • 211150Z 10011KT 9999 FEW015 BKN023 09/06 Q1000
  • 211120Z 10013KT 9999 FEW015 BKN023 09/06 Q1000
  • 211050Z 11013KT 9999 FEW016 BKN023 09/06 Q1001

TAF TAF EGHH
Valide du 21 à 12h jusqu'au 21 à 21h UTC


211101Z 2112/2121 10012KT 9999 FEW008 BKN022
TEMPO 2112/2115 8000 BKN008
BECMG 2115/2118 BKN008
TEMPO 2115/2121 6000 RA
PROB30
TEMPO 2115/2121 4000 +RA
ATIS : +44 1202 364 151
Météo : +44 1202 364 158 (TAF)



MET'MAP, la Météo Aéronautique d'un coup d'oeil ! - Copyright ORBIFLY Décembre 2007 - Disclaimer

ORBIFLY MET'MAP TEAM :

Programmation & Développement : Alexandra Zaïnal
Conception & Développement : Baudouin d'Aumeries
Co-Programmation & Développement : Marc-Olivier Méhu
Soutien technique & logistique : Manuel Goepfert

Contact : metmap@orbifly.com




SOURCES & CREDITS :

   NOAA